createdAt,value
2018-09-29T00:01:56.608Z,12.20
2018-09-29T00:04:20.548Z,12.32
2018-09-29T00:06:44.430Z,12.33
2018-09-29T00:09:10.278Z,12.19
2018-09-29T00:11:34.124Z,11.88
2018-09-29T00:13:58.103Z,11.91
2018-09-29T00:16:22.034Z,11.82
2018-09-29T00:18:45.865Z,11.70
2018-09-29T00:21:09.831Z,11.81
2018-09-29T00:23:33.673Z,11.69
2018-09-29T00:25:57.567Z,11.74
2018-09-29T00:28:21.560Z,11.83
2018-09-29T00:30:45.381Z,11.65
2018-09-29T00:33:09.417Z,11.66
2018-09-29T00:35:33.290Z,11.52
2018-09-29T00:37:57.140Z,11.27
2018-09-29T00:40:21.038Z,11.54
2018-09-29T00:42:44.898Z,11.57
2018-09-29T00:45:08.762Z,11.60
2018-09-29T00:47:32.633Z,11.52
2018-09-29T00:49:56.515Z,11.45
2018-09-29T00:52:20.417Z,11.20
2018-09-29T00:54:44.410Z,11.31
2018-09-29T00:57:08.278Z,11.20
2018-09-29T00:59:32.165Z,11.22
2018-09-29T01:01:56.063Z,11.36
2018-09-29T01:04:19.955Z,11.24
2018-09-29T01:06:43.852Z,11.31
2018-09-29T01:09:07.737Z,11.29
2018-09-29T01:11:31.612Z,11.32
2018-09-29T01:13:55.457Z,10.95
2018-09-29T01:16:19.342Z,11.04
2018-09-29T01:18:43.446Z,10.84
2018-09-29T01:21:09.186Z,10.95
2018-09-29T01:23:33.043Z,10.95
2018-09-29T01:25:56.945Z,10.98
2018-09-29T01:28:20.922Z,10.94
2018-09-29T01:30:44.792Z,10.63
2018-09-29T01:33:08.625Z,10.64
2018-09-29T01:35:32.532Z,10.79
2018-09-29T01:37:56.423Z,10.71
2018-09-29T01:40:20.295Z,10.93
2018-09-29T01:42:44.171Z,10.70
2018-09-29T01:45:08.141Z,10.54
2018-09-29T01:47:32.025Z,10.60
2018-09-29T01:49:55.898Z,10.49
2018-09-29T01:52:19.759Z,10.57
2018-09-29T01:54:43.617Z,10.47
2018-09-29T01:57:07.461Z,10.33
2018-09-29T01:59:31.364Z,10.29
2018-09-29T02:01:55.225Z,10.23
2018-09-29T02:04:19.107Z,10.40
2018-09-29T02:06:42.948Z,10.32
2018-09-29T02:09:07.417Z,10.14
2018-09-29T02:11:31.278Z,10.25
2018-09-29T02:13:55.128Z,10.28
2018-09-29T02:16:18.990Z,10.15
2018-09-29T02:18:42.829Z,10.17
2018-09-29T02:21:06.783Z,10.24
2018-09-29T02:23:30.640Z,10.07
2018-09-29T02:25:54.501Z,9.98
2018-09-29T02:28:18.532Z,9.83
2018-09-29T02:30:42.371Z,9.89
2018-09-29T02:33:06.283Z,9.91
2018-09-29T02:35:30.097Z,9.80
2018-09-29T02:37:54.042Z,9.87
2018-09-29T02:40:17.873Z,10.06
2018-09-29T02:42:41.725Z,9.78
2018-09-29T02:45:05.679Z,9.93
2018-09-29T02:47:29.519Z,9.69
2018-09-29T02:49:53.397Z,9.17
2018-09-29T02:52:17.240Z,9.43
2018-09-29T02:54:41.104Z,9.60
2018-09-29T02:57:04.936Z,9.52
2018-09-29T02:59:28.859Z,9.54
2018-09-29T03:01:52.718Z,9.33
2018-09-29T03:04:16.615Z,9.43
2018-09-29T03:06:40.466Z,9.29
2018-09-29T03:09:05.778Z,9.15
2018-09-29T03:11:29.648Z,9.22
2018-09-29T03:13:53.611Z,9.03
2018-09-29T03:16:17.501Z,8.64
2018-09-29T03:18:41.366Z,8.98
2018-09-29T03:21:05.276Z,9.08
2018-09-29T03:23:29.318Z,8.88
2018-09-29T03:25:53.239Z,8.61
2018-09-29T03:28:17.109Z,9.07
2018-09-29T03:30:40.957Z,7.75
2018-09-29T03:33:04.842Z,8.39
2018-09-29T03:35:28.716Z,8.45
2018-09-29T03:37:52.574Z,8.41
2018-09-29T03:40:16.424Z,8.35
2018-09-29T03:42:40.387Z,8.31
2018-09-29T03:45:04.216Z,8.59
2018-09-29T03:47:28.143Z,8.55
2018-09-29T03:49:52.012Z,8.30
2018-09-29T03:52:15.916Z,8.25
2018-09-29T03:54:39.792Z,8.22
2018-09-29T03:57:03.641Z,8.24
2018-09-29T03:59:27.549Z,8.23
2018-09-29T04:01:51.395Z,8.01
2018-09-29T04:04:15.370Z,8.23
2018-09-29T04:06:39.231Z,8.29
2018-09-29T04:09:03.144Z,8.30
2018-09-29T04:11:27.040Z,7.39
2018-09-29T04:13:50.955Z,7.69
2018-09-29T04:16:14.792Z,7.76
2018-09-29T04:18:38.651Z,7.92
2018-09-29T04:21:02.525Z,7.93
2018-09-29T04:23:26.481Z,8.02
2018-09-29T04:25:50.397Z,8.11
2018-09-29T04:28:14.431Z,8.15
2018-09-29T04:30:38.287Z,7.89
2018-09-29T04:33:02.131Z,7.68
2018-09-29T04:35:26.158Z,7.76
2018-09-29T04:37:50.058Z,7.91
2018-09-29T04:40:13.903Z,8.00
2018-09-29T04:42:37.768Z,7.73
2018-09-29T04:45:01.649Z,7.67
2018-09-29T04:47:25.518Z,7.47
2018-09-29T04:49:49.391Z,7.52
2018-09-29T04:52:13.249Z,7.58
2018-09-29T04:54:37.095Z,7.69
2018-09-29T04:57:00.920Z,7.72
2018-09-29T04:59:24.774Z,7.79
2018-09-29T05:01:48.693Z,7.83
2018-09-29T05:04:12.558Z,7.70
2018-09-29T05:06:36.483Z,7.70
2018-09-29T05:09:00.280Z,7.47
2018-09-29T05:11:24.151Z,7.38
2018-09-29T05:13:48.069Z,7.50
2018-09-29T05:16:11.854Z,7.59
2018-09-29T05:18:35.740Z,7.60
2018-09-29T05:20:59.643Z,7.53
2018-09-29T05:23:23.577Z,7.35
2018-09-29T05:25:47.392Z,6.94
2018-09-29T05:28:11.347Z,7.35
2018-09-29T05:30:35.232Z,7.37
2018-09-29T05:32:59.107Z,7.29
2018-09-29T05:35:22.944Z,7.10
2018-09-29T05:37:46.914Z,7.61
2018-09-29T05:40:10.739Z,7.38
2018-09-29T05:42:34.591Z,7.23
2018-09-29T05:44:58.463Z,6.29
2018-09-29T05:47:22.321Z,6.62
2018-09-29T05:49:46.219Z,6.70
2018-09-29T05:52:10.080Z,7.05
2018-09-29T05:54:34.229Z,7.11
2018-09-29T05:56:58.155Z,7.10
2018-09-29T05:59:22.054Z,7.22
2018-09-29T06:01:45.933Z,7.20
2018-09-29T06:04:09.776Z,7.39
2018-09-29T06:06:33.652Z,6.83
2018-09-29T06:08:57.554Z,7.29
2018-09-29T06:11:21.716Z,6.99
2018-09-29T06:13:45.607Z,7.05
2018-09-29T06:16:09.867Z,6.94
2018-09-29T06:18:33.767Z,7.10
2018-09-29T06:20:57.998Z,7.31
2018-09-29T06:23:21.824Z,7.07
2018-09-29T06:25:45.811Z,6.98
2018-09-29T06:28:10.065Z,6.89
2018-09-29T06:30:33.954Z,7.27
2018-09-29T06:32:57.908Z,7.38
2018-09-29T06:35:21.780Z,7.30
2018-09-29T06:37:45.672Z,7.26
2018-09-29T06:40:09.535Z,7.01
2018-09-29T06:42:33.446Z,7.33
2018-09-29T06:44:57.298Z,7.13
2018-09-29T06:47:21.202Z,7.52
2018-09-29T06:49:45.307Z,7.95
2018-09-29T06:52:09.151Z,7.90
2018-09-29T06:54:33.111Z,7.86
2018-09-29T06:56:56.908Z,7.75
2018-09-29T06:59:20.854Z,7.46
2018-09-29T07:01:44.937Z,7.15
2018-09-29T07:04:08.715Z,7.59
2018-09-29T07:06:32.671Z,7.54
2018-09-29T07:08:56.563Z,7.55
2018-09-29T07:11:20.407Z,8.08
2018-09-29T07:13:44.438Z,8.08
2018-09-29T07:16:08.445Z,7.79
2018-09-29T07:18:32.323Z,7.67
2018-09-29T07:20:56.222Z,7.67
2018-09-29T07:23:20.112Z,8.03
2018-09-29T07:25:44.468Z,8.17
2018-09-29T07:28:08.292Z,8.28
2018-09-29T07:30:32.161Z,8.75
2018-09-29T07:32:56.032Z,8.44
2018-09-29T07:35:20.121Z,8.56
2018-09-29T07:37:44.280Z,8.74
2018-09-29T07:40:08.110Z,8.62
2018-09-29T07:42:31.940Z,8.57
2018-09-29T07:44:55.833Z,8.78
2018-09-29T07:47:19.725Z,8.98
2018-09-29T07:49:43.711Z,9.02
2018-09-29T07:52:07.588Z,9.29
2018-09-29T07:54:31.667Z,9.65
2018-09-29T07:56:55.585Z,9.32
2018-09-29T07:59:19.422Z,9.39
2018-09-29T08:01:44.057Z,9.75
2018-09-29T08:04:07.916Z,10.03
2018-09-29T08:06:31.828Z,9.91
2018-09-29T08:08:55.714Z,9.87
2018-09-29T08:11:19.785Z,10.28
2018-09-29T08:13:43.718Z,10.20
2018-09-29T08:16:07.793Z,10.45
2018-09-29T08:18:31.661Z,10.49
2018-09-29T08:20:55.532Z,10.54
2018-09-29T08:23:19.411Z,10.45
2018-09-29T08:25:43.533Z,10.71
2018-09-29T08:28:07.388Z,10.94
2018-09-29T08:30:31.294Z,10.89
2018-09-29T08:32:55.184Z,10.99
2018-09-29T08:35:19.047Z,11.06
2018-09-29T08:37:42.990Z,11.25
2018-09-29T08:40:07.160Z,11.50
2018-09-29T08:42:31.071Z,12.05
2018-09-29T08:44:54.934Z,11.84
2018-09-29T08:47:18.851Z,11.87
2018-09-29T08:49:42.775Z,12.06
2018-09-29T08:52:06.689Z,12.03
2018-09-29T08:54:30.546Z,12.29
2018-09-29T08:56:54.428Z,12.14
2018-09-29T08:59:18.349Z,11.98
2018-09-29T09:01:42.188Z,11.93
2018-09-29T09:04:06.427Z,12.33
2018-09-29T09:06:30.201Z,12.54
2018-09-29T09:08:54.106Z,13.02
2018-09-29T09:11:18.155Z,12.71
2018-09-29T09:13:42.003Z,13.21
2018-09-29T09:16:05.984Z,13.08
2018-09-29T09:18:30.004Z,12.76
2018-09-29T09:20:53.969Z,13.18
2018-09-29T09:23:17.853Z,13.40
2018-09-29T09:25:41.731Z,13.44
2018-09-29T09:28:05.624Z,13.15
2018-09-29T09:30:29.487Z,13.34
2018-09-29T09:32:53.405Z,13.27
2018-09-29T09:35:17.241Z,13.40
2018-09-29T09:37:41.120Z,13.36
2018-09-29T09:40:05.029Z,13.61
2018-09-29T09:42:28.909Z,13.86
2018-09-29T09:44:52.792Z,14.29
2018-09-29T09:47:16.680Z,14.76
2018-09-29T09:49:40.647Z,14.45
2018-09-29T09:52:04.478Z,14.48
2018-09-29T09:54:28.385Z,14.76
2018-09-29T09:56:52.260Z,14.64
2018-09-29T09:59:16.310Z,14.72
2018-09-29T10:01:45.489Z,14.77
2018-09-29T10:04:09.388Z,14.68
2018-09-29T10:06:33.225Z,15.48
2018-09-29T10:08:57.099Z,15.88
2018-09-29T10:11:21.063Z,15.62
2018-09-29T10:13:44.945Z,15.23
2018-09-29T10:16:08.824Z,16.24
2018-09-29T10:18:32.686Z,15.68
2018-09-29T10:20:56.605Z,15.97
2018-09-29T10:23:20.482Z,15.91
2018-09-29T10:25:44.394Z,15.56
2018-09-29T10:28:08.322Z,15.84
2018-09-29T10:30:32.175Z,16.31
2018-09-29T10:32:56.091Z,16.04
2018-09-29T10:35:20.001Z,16.28
2018-09-29T10:37:43.907Z,16.37
2018-09-29T10:40:07.822Z,16.08
2018-09-29T10:42:31.700Z,16.43
2018-09-29T10:44:55.638Z,16.38
2018-09-29T10:47:19.570Z,16.19
2018-09-29T10:49:43.490Z,16.10
2018-09-29T10:52:08.039Z,15.97
2018-09-29T10:54:31.927Z,16.71
2018-09-29T10:56:55.832Z,17.40
2018-09-29T10:59:19.726Z,17.05
2018-09-29T11:01:43.653Z,17.45
2018-09-29T11:04:07.550Z,16.91
2018-09-29T11:06:31.608Z,17.28
2018-09-29T11:08:55.528Z,18.18
2018-09-29T11:11:19.565Z,17.60
2018-09-29T11:13:43.488Z,17.37
2018-09-29T11:16:07.519Z,17.89
2018-09-29T11:18:32.748Z,18.34
2018-09-29T11:20:56.730Z,18.67
2018-09-29T11:23:20.618Z,18.54
2018-09-29T11:25:44.532Z,18.59
2018-09-29T11:28:08.437Z,19.08
2018-09-29T11:30:32.266Z,17.66
2018-09-29T11:32:56.233Z,17.68
2018-09-29T11:35:20.115Z,18.07
2018-09-29T11:37:44.003Z,18.33
2018-09-29T11:40:07.962Z,19.14
2018-09-29T11:42:31.864Z,18.53
2018-09-29T11:44:55.849Z,18.31
2018-09-29T11:47:19.715Z,17.78
2018-09-29T11:49:43.810Z,17.74
2018-09-29T11:52:07.689Z,17.48
2018-09-29T11:54:31.579Z,19.00
2018-09-29T11:56:55.464Z,19.57
2018-09-29T11:59:19.342Z,20.05
2018-09-29T12:01:43.267Z,19.93
2018-09-29T12:04:07.153Z,18.85
2018-09-29T12:06:31.093Z,18.19
2018-09-29T12:08:54.994Z,24.58
2018-09-29T12:11:19.209Z,26.70
2018-09-29T12:13:43.212Z,23.50
2018-09-29T12:16:07.102Z,20.24
2018-09-29T12:18:31.012Z,18.59
2018-09-29T12:20:55.043Z,17.20
2018-09-29T12:23:19.090Z,18.27
2018-09-29T12:25:43.126Z,18.56
2018-09-29T12:28:07.468Z,19.17
2018-09-29T12:30:31.522Z,18.74
2018-09-29T12:32:55.408Z,19.24
2018-09-29T12:35:19.495Z,19.64
2018-09-29T12:37:43.595Z,18.83
2018-09-29T12:40:07.397Z,18.27
2018-09-29T12:42:31.532Z,18.83
2018-09-29T12:44:55.517Z,21.01
2018-09-29T12:47:20.960Z,18.92
2018-09-29T12:49:45.225Z,18.19
2018-09-29T12:52:09.102Z,17.99
2018-09-29T12:54:33.182Z,17.75
2018-09-29T12:56:57.107Z,17.74
2018-09-29T12:59:21.134Z,17.19
2018-09-29T13:01:45.128Z,17.00
2018-09-29T13:04:09.113Z,17.36
2018-09-29T13:06:32.964Z,17.64
2018-09-29T13:08:56.847Z,17.17
2018-09-29T13:11:20.783Z,16.66
2018-09-29T13:13:44.655Z,16.69
2018-09-29T13:16:08.653Z,17.95
2018-09-29T13:18:32.509Z,18.37
2018-09-29T13:20:56.428Z,17.04
2018-09-29T13:23:20.320Z,17.06
2018-09-29T13:25:44.237Z,17.54
2018-09-29T13:28:08.168Z,17.60
2018-09-29T13:30:32.093Z,17.31
2018-09-29T13:32:55.988Z,17.79
2018-09-29T13:35:19.982Z,17.84
2018-09-29T13:37:43.959Z,17.66
2018-09-29T13:40:07.905Z,17.77
2018-09-29T13:42:31.794Z,18.07
2018-09-29T13:44:56.755Z,18.63
2018-09-29T13:47:20.680Z,19.12
2018-09-29T13:49:44.593Z,19.45
2018-09-29T13:52:08.536Z,24.83
2018-09-29T13:54:32.447Z,29.97
2018-09-29T13:56:56.384Z,23.36
2018-09-29T13:59:20.305Z,21.73
2018-09-29T14:01:44.172Z,21.07
2018-09-29T14:04:08.124Z,20.31
2018-09-29T14:06:32.022Z,19.29
2018-09-29T14:08:55.892Z,19.86
2018-09-29T14:11:19.765Z,19.68
2018-09-29T14:13:43.673Z,18.79
2018-09-29T14:16:08.245Z,19.94
2018-09-29T14:18:32.142Z,21.09
2018-09-29T14:20:56.001Z,26.08
2018-09-29T14:23:19.989Z,28.98
2018-09-29T14:25:43.911Z,29.23
2018-09-29T14:28:07.818Z,28.43
2018-09-29T14:30:31.737Z,29.36
2018-09-29T14:32:55.672Z,29.58
2018-09-29T14:35:19.627Z,21.80
2018-09-29T14:37:43.581Z,20.19
2018-09-29T14:40:07.501Z,21.37
2018-09-29T14:42:31.362Z,21.39
2018-09-29T14:44:55.304Z,20.75
2018-09-29T14:47:19.255Z,21.33
2018-09-29T14:49:43.209Z,23.81
2018-09-29T14:52:07.261Z,28.99
2018-09-29T14:54:31.185Z,32.36
2018-09-29T14:56:55.075Z,30.73
2018-09-29T14:59:19.088Z,28.38
2018-09-29T15:01:42.879Z,31.80
2018-09-29T15:04:07.058Z,24.39
2018-09-29T15:06:31.128Z,25.54
2018-09-29T15:08:55.028Z,32.34
2018-09-29T15:11:18.970Z,28.56
2018-09-29T15:13:42.890Z,27.69
2018-09-29T15:16:07.681Z,27.07
2018-09-29T15:18:31.726Z,25.87
2018-09-29T15:20:55.639Z,29.40
2018-09-29T15:23:19.536Z,32.97
2018-09-29T15:25:43.414Z,29.74
2018-09-29T15:28:07.583Z,30.92
2018-09-29T15:30:31.495Z,28.32
2018-09-29T15:32:55.434Z,29.38
2018-09-29T15:35:19.337Z,25.54
2018-09-29T15:37:43.296Z,23.05
2018-09-29T15:40:07.240Z,28.92
2018-09-29T15:42:31.146Z,26.67
2018-09-29T15:44:55.040Z,24.92
2018-09-29T15:47:18.943Z,25.19
2018-09-29T15:49:42.876Z,23.65
2018-09-29T15:52:06.893Z,24.31
2018-09-29T15:54:30.803Z,23.95
2018-09-29T15:56:54.722Z,23.01
2018-09-29T15:59:18.626Z,26.49
2018-09-29T16:01:43.635Z,26.35
2018-09-29T16:04:07.869Z,26.02
2018-09-29T16:06:31.799Z,25.11
2018-09-29T16:08:55.921Z,24.98
2018-09-29T16:11:19.806Z,26.18
2018-09-29T16:13:43.732Z,26.13
2018-09-29T16:16:07.627Z,25.66
2018-09-29T16:18:31.520Z,24.10
2018-09-29T16:20:55.449Z,23.01
2018-09-29T16:23:19.468Z,21.99
2018-09-29T16:25:43.381Z,21.81
2018-09-29T16:28:07.449Z,21.70
2018-09-29T16:30:31.399Z,21.32
2018-09-29T16:32:55.286Z,20.86
2018-09-29T16:35:19.313Z,20.38
2018-09-29T16:37:43.235Z,20.19
2018-09-29T16:40:07.139Z,20.11
2018-09-29T16:42:31.288Z,19.82
2018-09-29T16:44:55.312Z,19.62
2018-09-29T16:47:19.248Z,19.52
2018-09-29T16:49:43.192Z,19.17
2018-09-29T16:52:07.217Z,19.22
2018-09-29T16:54:31.107Z,18.97
2018-09-29T16:56:55.129Z,18.99
2018-09-29T16:59:19.016Z,18.73
2018-09-29T17:01:42.941Z,18.37
2018-09-29T17:04:07.028Z,18.35
2018-09-29T17:06:30.839Z,18.52
2018-09-29T17:08:54.746Z,18.39
2018-09-29T17:11:18.605Z,18.08
2018-09-29T17:13:42.621Z,17.85
2018-09-29T17:16:06.702Z,18.01
2018-09-29T17:18:30.584Z,17.94
2018-09-29T17:20:54.511Z,17.80
2018-09-29T17:23:18.376Z,17.65
2018-09-29T17:25:42.294Z,17.29
2018-09-29T17:28:06.299Z,17.28
2018-09-29T17:30:30.250Z,17.11
2018-09-29T17:32:54.160Z,17.05
2018-09-29T17:35:18.049Z,17.10
2018-09-29T17:37:41.975Z,16.82
2018-09-29T17:40:05.975Z,16.89
2018-09-29T17:42:30.112Z,16.90
2018-09-29T17:44:53.987Z,16.95
2018-09-29T17:47:19.088Z,16.77
2018-09-29T17:49:42.961Z,16.69
2018-09-29T17:52:07.110Z,16.74
2018-09-29T17:54:31.035Z,16.56
2018-09-29T17:56:54.903Z,16.32
2018-09-29T17:59:18.873Z,16.42
2018-09-29T18:01:42.818Z,16.13
2018-09-29T18:04:07.016Z,16.00
2018-09-29T18:06:30.907Z,16.13
2018-09-29T18:08:54.843Z,15.94
2018-09-29T18:11:18.784Z,16.02
2018-09-29T18:13:42.711Z,16.04
2018-09-29T18:16:06.787Z,16.02
2018-09-29T18:18:30.736Z,16.02
2018-09-29T18:20:54.623Z,15.93
2018-09-29T18:23:18.651Z,15.93
2018-09-29T18:25:42.582Z,15.49
2018-09-29T18:28:06.569Z,15.67
2018-09-29T18:30:30.505Z,15.45
2018-09-29T18:32:54.486Z,15.42
2018-09-29T18:35:18.951Z,15.20
2018-09-29T18:37:42.867Z,15.03
2018-09-29T18:40:06.769Z,15.07
2018-09-29T18:42:30.759Z,15.28
2018-09-29T18:44:54.797Z,15.17
2018-09-29T18:47:18.794Z,15.24
2018-09-29T18:49:42.724Z,14.77
2018-09-29T18:52:06.687Z,14.79
2018-09-29T18:54:30.642Z,14.86
2018-09-29T18:56:54.579Z,15.01
2018-09-29T18:59:18.598Z,14.81
2018-09-29T19:01:42.504Z,14.69
2018-09-29T19:04:06.540Z,14.23
2018-09-29T19:06:30.544Z,14.51
2018-09-29T19:08:54.504Z,14.41
2018-09-29T19:11:18.614Z,14.64
2018-09-29T19:13:42.493Z,14.46
2018-09-29T19:16:06.456Z,14.37
2018-09-29T19:18:30.464Z,14.24
2018-09-29T19:20:54.395Z,14.35
2018-09-29T19:23:18.363Z,14.33
2018-09-29T19:25:42.351Z,14.28
2018-09-29T19:28:06.234Z,13.92
2018-09-29T19:30:30.178Z,13.84
2018-09-29T19:32:54.096Z,14.01
2018-09-29T19:35:18.390Z,13.97
2018-09-29T19:37:42.385Z,13.86
2018-09-29T19:40:07.224Z,13.63
2018-09-29T19:42:31.155Z,13.53
2018-09-29T19:44:55.083Z,13.86
2018-09-29T19:47:19.043Z,13.75
2018-09-29T19:49:42.946Z,13.55
2018-09-29T19:52:06.980Z,13.69
2018-09-29T19:54:30.892Z,13.34
2018-09-29T19:56:54.959Z,13.29
2018-09-29T19:59:18.924Z,13.39
2018-09-29T20:01:42.876Z,13.28
2018-09-29T20:04:06.827Z,13.06
2018-09-29T20:06:30.786Z,13.20
2018-09-29T20:08:54.703Z,13.42
2018-09-29T20:11:18.662Z,13.11
2018-09-29T20:13:42.551Z,12.95
2018-09-29T20:16:06.567Z,12.92
2018-09-29T20:18:30.441Z,12.77
2018-09-29T20:20:54.375Z,12.84
2018-09-29T20:23:18.244Z,12.95
2018-09-29T20:25:42.231Z,12.77
2018-09-29T20:28:06.164Z,12.85
2018-09-29T20:30:30.113Z,12.70
2018-09-29T20:32:54.005Z,12.96
2018-09-29T20:35:17.935Z,12.76
2018-09-29T20:37:41.967Z,12.74
2018-09-29T20:40:05.995Z,12.47
2018-09-29T20:42:29.916Z,12.46
2018-09-29T20:44:53.808Z,12.50
2018-09-29T20:47:17.802Z,12.24
2018-09-29T20:49:41.711Z,12.18
2018-09-29T20:52:05.649Z,12.31
2018-09-29T20:54:29.559Z,12.28
2018-09-29T20:56:53.453Z,11.93
2018-09-29T20:59:17.387Z,12.00
2018-09-29T21:01:41.274Z,12.13
2018-09-29T21:04:05.203Z,12.04
2018-09-29T21:06:29.087Z,12.12
2018-09-29T21:08:52.989Z,12.08
2018-09-29T21:11:16.890Z,12.01
2018-09-29T21:13:40.805Z,12.10
2018-09-29T21:16:04.671Z,11.97
2018-09-29T21:18:28.603Z,11.93
2018-09-29T21:20:52.522Z,11.95
2018-09-29T21:23:16.423Z,11.92
2018-09-29T21:25:40.509Z,11.78
2018-09-29T21:28:04.436Z,11.78
2018-09-29T21:30:28.322Z,11.90
2018-09-29T21:32:52.214Z,11.54
2018-09-29T21:35:16.134Z,11.28
2018-09-29T21:37:40.020Z,11.71
2018-09-29T21:40:03.960Z,11.54
2018-09-29T21:42:28.126Z,11.65
2018-09-29T21:44:51.879Z,11.48
2018-09-29T21:47:15.775Z,11.76
2018-09-29T21:49:39.677Z,11.57
2018-09-29T21:52:03.561Z,11.64
2018-09-29T21:54:27.487Z,11.39
2018-09-29T21:56:51.379Z,11.35
2018-09-29T21:59:15.436Z,11.23
2018-09-29T22:01:39.301Z,11.20
2018-09-29T22:04:03.778Z,11.18
2018-09-29T22:06:27.986Z,10.88
2018-09-29T22:08:51.835Z,11.22
2018-09-29T22:11:15.742Z,11.13
2018-09-29T22:13:39.629Z,11.07
2018-09-29T22:16:03.520Z,11.17
2018-09-29T22:18:27.443Z,11.05
2018-09-29T22:20:51.357Z,11.15
2018-09-29T22:23:15.328Z,11.13
2018-09-29T22:25:39.227Z,10.93
2018-09-29T22:28:03.122Z,10.49
2018-09-29T22:30:26.995Z,10.56
2018-09-29T22:32:50.914Z,10.07
2018-09-29T22:35:14.773Z,10.11
2018-09-29T22:37:38.676Z,10.04
2018-09-29T22:40:02.541Z,10.10
2018-09-29T22:42:26.433Z,10.17
2018-09-29T22:44:50.307Z,10.32
2018-09-29T22:47:14.210Z,10.44
2018-09-29T22:49:38.320Z,10.60
2018-09-29T22:52:02.175Z,10.43
2018-09-29T22:54:26.051Z,10.47
2018-09-29T22:56:49.938Z,10.44
2018-09-29T22:59:13.812Z,10.58
2018-09-29T23:01:37.739Z,10.63
2018-09-29T23:04:01.666Z,10.55
2018-09-29T23:06:25.535Z,10.06
2018-09-29T23:08:49.458Z,10.22
2018-09-29T23:11:13.329Z,9.98
2018-09-29T23:13:37.198Z,9.90
2018-09-29T23:16:01.065Z,10.08
2018-09-29T23:18:25.018Z,10.13
2018-09-29T23:20:48.845Z,9.88
2018-09-29T23:23:12.715Z,9.98
2018-09-29T23:25:36.655Z,9.72
2018-09-29T23:28:00.540Z,9.99
2018-09-29T23:30:24.456Z,10.14
2018-09-29T23:32:48.332Z,9.78
2018-09-29T23:35:12.186Z,9.87
2018-09-29T23:37:36.054Z,9.77
2018-09-29T23:39:59.947Z,9.96
2018-09-29T23:42:23.776Z,9.72
2018-09-29T23:44:47.689Z,9.81
2018-09-29T23:47:11.573Z,9.78
2018-09-29T23:49:35.497Z,9.65
2018-09-29T23:51:59.357Z,9.71
2018-09-29T23:54:23.209Z,9.81
2018-09-29T23:56:47.073Z,9.71
2018-09-29T23:59:10.914Z,9.44
